Aviation Digital Data Service (ADDS)

Output produced by METARs form (1610 UTC 01 August 2015)
found at http://aviationweather.gov/adds/metars/
 
KDUJ 011605Z 0116/0212 32010G18KT P6SM SCT050 
     FM020000 26003KT P6SM SCT100